sensor_id;sensor_type;location;lat;lon;timestamp;P1;durP1;ratioP1;P2;durP2;ratioP2
36449;SDS011;22475;51.390;7.180;2024-03-02T00:01:05;1.20;;;1.10;;
36449;SDS011;22475;51.390;7.180;2024-03-02T00:03:32;4.85;;;1.42;;
36449;SDS011;22475;51.390;7.180;2024-03-02T00:05:59;1.52;;;1.20;;
36449;SDS011;22475;51.390;7.180;2024-03-02T00:08:26;1.45;;;0.70;;
36449;SDS011;22475;51.390;7.180;2024-03-02T00:10:58;0.75;;;0.75;;
36449;SDS011;22475;51.390;7.180;2024-03-02T00:13:25;1.95;;;1.10;;
36449;SDS011;22475;51.390;7.180;2024-03-02T00:15:53;1.33;;;0.90;;
36449;SDS011;22475;51.390;7.180;2024-03-02T00:18:23;0.60;;;0.60;;
36449;SDS011;22475;51.390;7.180;2024-03-02T00:20:54;1.02;;;0.95;;
36449;SDS011;22475;51.390;7.180;2024-03-02T00:23:22;1.30;;;0.80;;
36449;SDS011;22475;51.390;7.180;2024-03-02T00:25:50;2.28;;;1.50;;
36449;SDS011;22475;51.390;7.180;2024-03-02T00:28:21;1.25;;;0.90;;
36449;SDS011;22475;51.390;7.180;2024-03-02T00:30:51;1.15;;;1.00;;
36449;SDS011;22475;51.390;7.180;2024-03-02T00:33:22;0.88;;;0.60;;
36449;SDS011;22475;51.390;7.180;2024-03-02T00:35:50;1.00;;;0.65;;
36449;SDS011;22475;51.390;7.180;2024-03-02T00:38:17;2.17;;;0.88;;
36449;SDS011;22475;51.390;7.180;2024-03-02T00:40:44;3.25;;;0.98;;
36449;SDS011;22475;51.390;7.180;2024-03-02T00:43:21;0.73;;;0.73;;
36449;SDS011;22475;51.390;7.180;2024-03-02T00:46:07;1.58;;;0.60;;
36449;SDS011;22475;51.390;7.180;2024-03-02T00:48:34;2.05;;;0.57;;
36449;SDS011;22475;51.390;7.180;2024-03-02T00:51:02;0.68;;;0.52;;
36449;SDS011;22475;51.390;7.180;2024-03-02T00:53:29;6.13;;;0.63;;
36449;SDS011;22475;51.390;7.180;2024-03-02T00:55:57;1.58;;;0.95;;
36449;SDS011;22475;51.390;7.180;2024-03-02T00:58:24;2.00;;;1.58;;
36449;SDS011;22475;51.390;7.180;2024-03-02T01:00:52;2.58;;;0.60;;
36449;SDS011;22475;51.390;7.180;2024-03-02T01:03:19;0.63;;;0.60;;
36449;SDS011;22475;51.390;7.180;2024-03-02T01:05:46;5.40;;;0.60;;
36449;SDS011;22475;51.390;7.180;2024-03-02T01:08:13;1.08;;;0.85;;
36449;SDS011;22475;51.390;7.180;2024-03-02T01:10:39;0.90;;;0.85;;
36449;SDS011;22475;51.390;7.180;2024-03-02T01:13:06;0.80;;;0.75;;
36449;SDS011;22475;51.390;7.180;2024-03-02T01:15:33;1.45;;;0.85;;
36449;SDS011;22475;51.390;7.180;2024-03-02T01:18:01;3.47;;;0.55;;
36449;SDS011;22475;51.390;7.180;2024-03-02T01:20:28;0.65;;;0.40;;
36449;SDS011;22475;51.390;7.180;2024-03-02T01:22:55;0.88;;;0.68;;
36449;SDS011;22475;51.390;7.180;2024-03-02T01:25:22;0.95;;;0.52;;
36449;SDS011;22475;51.390;7.180;2024-03-02T01:27:48;1.65;;;0.45;;
36449;SDS011;22475;51.390;7.180;2024-03-02T01:30:15;0.60;;;0.32;;
36449;SDS011;22475;51.390;7.180;2024-03-02T01:32:42;2.47;;;0.63;;
36449;SDS011;22475;51.390;7.180;2024-03-02T01:35:10;0.98;;;0.73;;
36449;SDS011;22475;51.390;7.180;2024-03-02T01:37:37;1.48;;;0.70;;
36449;SDS011;22475;51.390;7.180;2024-03-02T01:40:04;1.27;;;0.45;;
36449;SDS011;22475;51.390;7.180;2024-03-02T01:42:34;5.10;;;0.55;;
36449;SDS011;22475;51.390;7.180;2024-03-02T01:45:01;2.47;;;0.93;;
36449;SDS011;22475;51.390;7.180;2024-03-02T01:47:29;1.17;;;0.50;;
36449;SDS011;22475;51.390;7.180;2024-03-02T01:49:56;0.10;;;0.00;;
36449;SDS011;22475;51.390;7.180;2024-03-02T01:52:24;1.67;;;0.82;;
36449;SDS011;22475;51.390;7.180;2024-03-02T01:54:51;1.63;;;0.50;;
36449;SDS011;22475;51.390;7.180;2024-03-02T01:57:18;0.68;;;0.52;;
36449;SDS011;22475;51.390;7.180;2024-03-02T01:59:45;1.23;;;0.63;;
36449;SDS011;22475;51.390;7.180;2024-03-02T02:02:13;0.73;;;0.63;;
36449;SDS011;22475;51.390;7.180;2024-03-02T02:04:40;0.68;;;0.52;;
36449;SDS011;22475;51.390;7.180;2024-03-02T02:07:07;1.13;;;0.60;;
36449;SDS011;22475;51.390;7.180;2024-03-02T02:09:35;3.92;;;0.60;;
36449;SDS011;22475;51.390;7.180;2024-03-02T02:12:02;0.80;;;0.40;;
36449;SDS011;22475;51.390;7.180;2024-03-02T02:14:31;3.25;;;0.68;;
36449;SDS011;22475;51.390;7.180;2024-03-02T02:16:58;3.22;;;0.65;;
36449;SDS011;22475;51.390;7.180;2024-03-02T02:19:25;1.17;;;0.60;;
36449;SDS011;22475;51.390;7.180;2024-03-02T02:21:53;1.05;;;0.50;;
36449;SDS011;22475;51.390;7.180;2024-03-02T02:24:20;0.50;;;0.50;;
36449;SDS011;22475;51.390;7.180;2024-03-02T02:26:47;1.77;;;0.60;;
36449;SDS011;22475;51.390;7.180;2024-03-02T02:29:13;2.50;;;0.50;;
36449;SDS011;22475;51.390;7.180;2024-03-02T02:31:41;2.03;;;0.80;;
36449;SDS011;22475;51.390;7.180;2024-03-02T02:34:07;0.95;;;0.60;;
36449;SDS011;22475;51.390;7.180;2024-03-02T02:36:35;0.35;;;0.30;;
36449;SDS011;22475;51.390;7.180;2024-03-02T02:39:06;3.40;;;1.97;;
36449;SDS011;22475;51.390;7.180;2024-03-02T02:41:39;2.80;;;0.20;;
36449;SDS011;22475;51.390;7.180;2024-03-02T02:44:06;1.25;;;0.52;;
36449;SDS011;22475;51.390;7.180;2024-03-02T02:46:33;1.27;;;0.30;;
36449;SDS011;22475;51.390;7.180;2024-03-02T02:48:59;2.10;;;0.63;;
36449;SDS011;22475;51.390;7.180;2024-03-02T02:51:26;0.73;;;0.50;;
36449;SDS011;22475;51.390;7.180;2024-03-02T02:53:53;1.75;;;0.60;;
36449;SDS011;22475;51.390;7.180;2024-03-02T02:56:21;4.25;;;0.57;;
36449;SDS011;22475;51.390;7.180;2024-03-02T02:58:48;1.85;;;0.98;;
36449;SDS011;22475;51.390;7.180;2024-03-02T03:01:15;0.25;;;0.15;;
36449;SDS011;22475;51.390;7.180;2024-03-02T03:03:43;2.80;;;0.75;;
36449;SDS011;22475;51.390;7.180;2024-03-02T03:06:10;0.95;;;0.70;;
36449;SDS011;22475;51.390;7.180;2024-03-02T03:08:37;0.32;;;0.25;;
36449;SDS011;22475;51.390;7.180;2024-03-02T03:11:04;1.05;;;0.38;;
36449;SDS011;22475;51.390;7.180;2024-03-02T03:13:33;0.80;;;0.65;;
36449;SDS011;22475;51.390;7.180;2024-03-02T03:16:00;1.42;;;0.70;;
36449;SDS011;22475;51.390;7.180;2024-03-02T03:18:28;2.22;;;0.55;;
36449;SDS011;22475;51.390;7.180;2024-03-02T03:20:55;0.80;;;0.55;;
36449;SDS011;22475;51.390;7.180;2024-03-02T03:23:21;0.75;;;0.45;;
36449;SDS011;22475;51.390;7.180;2024-03-02T03:25:48;4.45;;;0.47;;
36449;SDS011;22475;51.390;7.180;2024-03-02T03:28:15;1.60;;;0.55;;
36449;SDS011;22475;51.390;7.180;2024-03-02T03:30:43;0.45;;;0.40;;
36449;SDS011;22475;51.390;7.180;2024-03-02T03:33:10;2.20;;;0.43;;
36449;SDS011;22475;51.390;7.180;2024-03-02T03:35:37;0.82;;;0.65;;
36449;SDS011;22475;51.390;7.180;2024-03-02T03:38:04;0.35;;;0.30;;
36449;SDS011;22475;51.390;7.180;2024-03-02T03:40:30;0.55;;;0.55;;
36449;SDS011;22475;51.390;7.180;2024-03-02T03:42:57;2.00;;;0.57;;
36449;SDS011;22475;51.390;7.180;2024-03-02T03:45:25;1.58;;;0.70;;
36449;SDS011;22475;51.390;7.180;2024-03-02T03:47:53;2.38;;;0.60;;
36449;SDS011;22475;51.390;7.180;2024-03-02T03:50:20;1.48;;;0.70;;
36449;SDS011;22475;51.390;7.180;2024-03-02T03:52:47;3.35;;;1.13;;
36449;SDS011;22475;51.390;7.180;2024-03-02T03:55:14;2.85;;;0.80;;
36449;SDS011;22475;51.390;7.180;2024-03-02T03:57:41;0.43;;;0.43;;
36449;SDS011;22475;51.390;7.180;2024-03-02T04:00:08;2.63;;;0.70;;
36449;SDS011;22475;51.390;7.180;2024-03-02T04:02:37;2.08;;;0.40;;
36449;SDS011;22475;51.390;7.180;2024-03-02T04:05:05;0.82;;;0.82;;
36449;SDS011;22475;51.390;7.180;2024-03-02T04:07:34;6.13;;;0.55;;
36449;SDS011;22475;51.390;7.180;2024-03-02T04:10:05;1.80;;;0.70;;
36449;SDS011;22475;51.390;7.180;2024-03-02T04:12:34;3.08;;;0.73;;
36449;SDS011;22475;51.390;7.180;2024-03-02T04:15:01;0.73;;;0.40;;
36449;SDS011;22475;51.390;7.180;2024-03-02T04:17:29;0.68;;;0.68;;
36449;SDS011;22475;51.390;7.180;2024-03-02T04:19:58;1.30;;;0.70;;
36449;SDS011;22475;51.390;7.180;2024-03-02T04:22:26;0.68;;;0.68;;
36449;SDS011;22475;51.390;7.180;2024-03-02T04:24:53;1.55;;;0.40;;
36449;SDS011;22475;51.390;7.180;2024-03-02T04:27:20;1.35;;;0.60;;
36449;SDS011;22475;51.390;7.180;2024-03-02T04:29:46;4.05;;;0.70;;
36449;SDS011;22475;51.390;7.180;2024-03-02T04:32:12;0.55;;;0.55;;
36449;SDS011;22475;51.390;7.180;2024-03-02T04:34:39;1.20;;;0.60;;
36449;SDS011;22475;51.390;7.180;2024-03-02T04:37:06;1.00;;;0.55;;
36449;SDS011;22475;51.390;7.180;2024-03-02T04:39:35;0.88;;;0.60;;
36449;SDS011;22475;51.390;7.180;2024-03-02T04:42:02;0.50;;;0.50;;
36449;SDS011;22475;51.390;7.180;2024-03-02T04:44:29;3.80;;;0.55;;
36449;SDS011;22475;51.390;7.180;2024-03-02T04:46:56;0.93;;;0.50;;
36449;SDS011;22475;51.390;7.180;2024-03-02T04:49:23;2.33;;;0.65;;
36449;SDS011;22475;51.390;7.180;2024-03-02T04:51:49;0.95;;;0.50;;
36449;SDS011;22475;51.390;7.180;2024-03-02T04:54:17;1.98;;;0.57;;
36449;SDS011;22475;51.390;7.180;2024-03-02T04:56:45;0.50;;;0.50;;
36449;SDS011;22475;51.390;7.180;2024-03-02T04:59:15;3.97;;;0.70;;
36449;SDS011;22475;51.390;7.180;2024-03-02T05:01:43;0.50;;;0.50;;
36449;SDS011;22475;51.390;7.180;2024-03-02T05:04:10;1.10;;;0.60;;
36449;SDS011;22475;51.390;7.180;2024-03-02T05:06:37;3.53;;;0.90;;
36449;SDS011;22475;51.390;7.180;2024-03-02T05:09:05;0.40;;;0.40;;
36449;SDS011;22475;51.390;7.180;2024-03-02T05:11:32;2.72;;;0.68;;
36449;SDS011;22475;51.390;7.180;2024-03-02T05:14:25;1.38;;;0.50;;
36449;SDS011;22475;51.390;7.180;2024-03-02T05:16:51;1.25;;;0.68;;
36449;SDS011;22475;51.390;7.180;2024-03-02T05:19:18;2.83;;;0.68;;
36449;SDS011;22475;51.390;7.180;2024-03-02T05:21:45;4.88;;;0.60;;
36449;SDS011;22475;51.390;7.180;2024-03-02T05:24:11;2.75;;;0.55;;
36449;SDS011;22475;51.390;7.180;2024-03-02T05:26:38;0.40;;;0.40;;
36449;SDS011;22475;51.390;7.180;2024-03-02T05:29:05;1.67;;;0.68;;
36449;SDS011;22475;51.390;7.180;2024-03-02T05:31:33;1.48;;;0.95;;
36449;SDS011;22475;51.390;7.180;2024-03-02T05:34:00;0.60;;;0.60;;
36449;SDS011;22475;51.390;7.180;2024-03-02T05:36:27;1.13;;;0.85;;
36449;SDS011;22475;51.390;7.180;2024-03-02T05:38:54;1.20;;;0.75;;
36449;SDS011;22475;51.390;7.180;2024-03-02T05:41:21;1.75;;;0.80;;
36449;SDS011;22475;51.390;7.180;2024-03-02T05:43:48;1.20;;;0.80;;
36449;SDS011;22475;51.390;7.180;2024-03-02T05:46:15;1.35;;;0.95;;
36449;SDS011;22475;51.390;7.180;2024-03-02T05:48:43;2.15;;;0.95;;
36449;SDS011;22475;51.390;7.180;2024-03-02T05:51:09;2.55;;;1.38;;
36449;SDS011;22475;51.390;7.180;2024-03-02T05:53:36;6.07;;;0.65;;
36449;SDS011;22475;51.390;7.180;2024-03-02T05:56:04;3.90;;;0.80;;
36449;SDS011;22475;51.390;7.180;2024-03-02T05:58:31;1.70;;;0.95;;
36449;SDS011;22475;51.390;7.180;2024-03-02T06:01:11;1.85;;;1.45;;
36449;SDS011;22475;51.390;7.180;2024-03-02T06:03:38;2.08;;;1.10;;
36449;SDS011;22475;51.390;7.180;2024-03-02T06:06:06;1.67;;;1.05;;
36449;SDS011;22475;51.390;7.180;2024-03-02T06:08:33;3.45;;;1.30;;
36449;SDS011;22475;51.390;7.180;2024-03-02T06:11:00;2.55;;;1.15;;
36449;SDS011;22475;51.390;7.180;2024-03-02T06:13:27;0.95;;;0.75;;
36449;SDS011;22475;51.390;7.180;2024-03-02T06:15:53;2.28;;;1.40;;
36449;SDS011;22475;51.390;7.180;2024-03-02T06:18:20;2.58;;;1.30;;
36449;SDS011;22475;51.390;7.180;2024-03-02T06:20:47;3.40;;;1.40;;
36449;SDS011;22475;51.390;7.180;2024-03-02T06:23:15;2.95;;;1.55;;
36449;SDS011;22475;51.390;7.180;2024-03-02T06:25:42;1.60;;;1.50;;
36449;SDS011;22475;51.390;7.180;2024-03-02T06:28:09;3.30;;;1.63;;
36449;SDS011;22475;51.390;7.180;2024-03-02T06:30:35;2.08;;;1.40;;
36449;SDS011;22475;51.390;7.180;2024-03-02T06:33:02;1.52;;;1.42;;
36449;SDS011;22475;51.390;7.180;2024-03-02T06:35:31;2.00;;;1.30;;
36449;SDS011;22475;51.390;7.180;2024-03-02T06:37:58;1.35;;;1.25;;
36449;SDS011;22475;51.390;7.180;2024-03-02T06:40:26;1.65;;;1.17;;
36449;SDS011;22475;51.390;7.180;2024-03-02T06:42:53;1.30;;;1.20;;
36449;SDS011;22475;51.390;7.180;2024-03-02T06:45:20;5.20;;;1.50;;
36449;SDS011;22475;51.390;7.180;2024-03-02T06:47:46;7.97;;;1.40;;
36449;SDS011;22475;51.390;7.180;2024-03-02T06:50:13;1.50;;;1.40;;
36449;SDS011;22475;51.390;7.180;2024-03-02T06:52:40;2.47;;;0.93;;
36449;SDS011;22475;51.390;7.180;2024-03-02T06:55:07;3.35;;;1.80;;
36449;SDS011;22475;51.390;7.180;2024-03-02T06:57:35;1.00;;;1.00;;
36449;SDS011;22475;51.390;7.180;2024-03-02T07:00:02;4.18;;;1.48;;
36449;SDS011;22475;51.390;7.180;2024-03-02T07:02:30;1.73;;;1.63;;
36449;SDS011;22475;51.390;7.180;2024-03-02T07:04:57;4.28;;;1.75;;
36449;SDS011;22475;51.390;7.180;2024-03-02T07:07:24;3.65;;;1.73;;
36449;SDS011;22475;51.390;7.180;2024-03-02T07:09:51;1.92;;;1.30;;
36449;SDS011;22475;51.390;7.180;2024-03-02T07:12:17;2.17;;;1.95;;
36449;SDS011;22475;51.390;7.180;2024-03-02T07:14:45;1.65;;;1.30;;
36449;SDS011;22475;51.390;7.180;2024-03-02T07:17:36;2.35;;;1.50;;
36449;SDS011;22475;51.390;7.180;2024-03-02T07:20:02;3.17;;;1.95;;
36449;SDS011;22475;51.390;7.180;2024-03-02T07:22:29;2.00;;;1.42;;
36449;SDS011;22475;51.390;7.180;2024-03-02T07:24:56;4.22;;;2.30;;
36449;SDS011;22475;51.390;7.180;2024-03-02T07:27:23;3.35;;;1.50;;
36449;SDS011;22475;51.390;7.180;2024-03-02T07:29:51;2.78;;;1.50;;
36449;SDS011;22475;51.390;7.180;2024-03-02T07:32:18;4.00;;;1.75;;
36449;SDS011;22475;51.390;7.180;2024-03-02T07:34:45;1.40;;;1.30;;
36449;SDS011;22475;51.390;7.180;2024-03-02T07:37:11;3.22;;;1.75;;
36449;SDS011;22475;51.390;7.180;2024-03-02T07:39:38;4.57;;;1.88;;
36449;SDS011;22475;51.390;7.180;2024-03-02T07:42:05;3.08;;;1.17;;
36449;SDS011;22475;51.390;7.180;2024-03-02T07:44:32;3.15;;;2.40;;
36449;SDS011;22475;51.390;7.180;2024-03-02T07:47:01;3.25;;;1.50;;
36449;SDS011;22475;51.390;7.180;2024-03-02T07:49:27;3.05;;;2.10;;
36449;SDS011;22475;51.390;7.180;2024-03-02T07:51:54;6.80;;;1.73;;
36449;SDS011;22475;51.390;7.180;2024-03-02T07:54:21;2.38;;;1.65;;
36449;SDS011;22475;51.390;7.180;2024-03-02T07:56:48;4.93;;;1.83;;
36449;SDS011;22475;51.390;7.180;2024-03-02T07:59:15;1.63;;;1.30;;
36449;SDS011;22475;51.390;7.180;2024-03-02T08:01:42;5.07;;;0.95;;
36449;SDS011;22475;51.390;7.180;2024-03-02T08:04:10;3.10;;;1.55;;
36449;SDS011;22475;51.390;7.180;2024-03-02T08:06:37;2.80;;;1.40;;
36449;SDS011;22475;51.390;7.180;2024-03-02T08:09:03;4.22;;;1.70;;
36449;SDS011;22475;51.390;7.180;2024-03-02T08:11:34;2.17;;;1.75;;
36449;SDS011;22475;51.390;7.180;2024-03-02T08:14:02;2.15;;;1.40;;
36449;SDS011;22475;51.390;7.180;2024-03-02T08:16:29;3.70;;;1.50;;
36449;SDS011;22475;51.390;7.180;2024-03-02T08:18:56;2.13;;;1.52;;
36449;SDS011;22475;51.390;7.180;2024-03-02T08:21:24;1.02;;;0.88;;
36449;SDS011;22475;51.390;7.180;2024-03-02T08:23:51;5.10;;;1.40;;
36449;SDS011;22475;51.390;7.180;2024-03-02T08:26:18;1.27;;;1.17;;
36449;SDS011;22475;51.390;7.180;2024-03-02T08:28:45;1.48;;;1.15;;
36449;SDS011;22475;51.390;7.180;2024-03-02T08:31:12;5.65;;;1.20;;
36449;SDS011;22475;51.390;7.180;2024-03-02T08:33:39;1.92;;;1.00;;
36449;SDS011;22475;51.390;7.180;2024-03-02T08:36:07;1.95;;;1.40;;
36449;SDS011;22475;51.390;7.180;2024-03-02T08:38:36;1.75;;;1.10;;
36449;SDS011;22475;51.390;7.180;2024-03-02T08:41:04;0.88;;;0.85;;
36449;SDS011;22475;51.390;7.180;2024-03-02T08:43:31;1.85;;;1.05;;
36449;SDS011;22475;51.390;7.180;2024-03-02T08:45:58;1.02;;;0.93;;
36449;SDS011;22475;51.390;7.180;2024-03-02T08:48:26;6.25;;;1.02;;
36449;SDS011;22475;51.390;7.180;2024-03-02T08:50:53;3.60;;;0.65;;
36449;SDS011;22475;51.390;7.180;2024-03-02T08:53:20;2.13;;;1.50;;
36449;SDS011;22475;51.390;7.180;2024-03-02T08:55:48;1.85;;;0.90;;
36449;SDS011;22475;51.390;7.180;2024-03-02T08:58:15;0.85;;;0.70;;
36449;SDS011;22475;51.390;7.180;2024-03-02T09:00:42;1.38;;;0.77;;
36449;SDS011;22475;51.390;7.180;2024-03-02T09:03:09;0.90;;;0.80;;
36449;SDS011;22475;51.390;7.180;2024-03-02T09:05:36;2.65;;;0.60;;
36449;SDS011;22475;51.390;7.180;2024-03-02T09:08:03;2.72;;;0.70;;
36449;SDS011;22475;51.390;7.180;2024-03-02T09:10:30;0.22;;;0.22;;
36449;SDS011;22475;51.390;7.180;2024-03-02T09:12:59;0.70;;;0.40;;
36449;SDS011;22475;51.390;7.180;2024-03-02T09:15:26;0.40;;;0.28;;
36449;SDS011;22475;51.390;7.180;2024-03-02T09:17:53;1.20;;;0.98;;
36449;SDS011;22475;51.390;7.180;2024-03-02T09:20:19;1.35;;;1.23;;
36449;SDS011;22475;51.390;7.180;2024-03-02T09:22:46;1.15;;;0.57;;
36449;SDS011;22475;51.390;7.180;2024-03-02T09:25:13;0.88;;;0.82;;
36449;SDS011;22475;51.390;7.180;2024-03-02T09:27:41;0.98;;;0.65;;
36449;SDS011;22475;51.390;7.180;2024-03-02T09:30:09;0.77;;;0.73;;
36449;SDS011;22475;51.390;7.180;2024-03-02T09:35:05;1.98;;;0.68;;
36449;SDS011;22475;51.390;7.180;2024-03-02T09:37:33;5.28;;;0.73;;
36449;SDS011;22475;51.390;7.180;2024-03-02T09:39:59;1.05;;;0.85;;
36449;SDS011;22475;51.390;7.180;2024-03-02T09:42:26;5.75;;;0.90;;
36449;SDS011;22475;51.390;7.180;2024-03-02T09:44:53;0.60;;;0.55;;
36449;SDS011;22475;51.390;7.180;2024-03-02T09:47:22;7.15;;;1.23;;
36449;SDS011;22475;51.390;7.180;2024-03-02T09:49:49;2.30;;;0.70;;
36449;SDS011;22475;51.390;7.180;2024-03-02T09:52:16;0.65;;;0.57;;
36449;SDS011;22475;51.390;7.180;2024-03-02T09:54:42;3.25;;;0.30;;
36449;SDS011;22475;51.390;7.180;2024-03-02T09:57:09;3.70;;;0.90;;
36449;SDS011;22475;51.390;7.180;2024-03-02T09:59:36;3.25;;;0.75;;
36449;SDS011;22475;51.390;7.180;2024-03-02T10:02:03;1.95;;;0.60;;
36449;SDS011;22475;51.390;7.180;2024-03-02T10:04:33;0.57;;;0.57;;
36449;SDS011;22475;51.390;7.180;2024-03-02T10:09:44;1.17;;;0.40;;
36449;SDS011;22475;51.390;7.180;2024-03-02T10:12:12;2.97;;;0.40;;
36449;SDS011;22475;51.390;7.180;2024-03-02T10:14:40;1.00;;;0.68;;
36449;SDS011;22475;51.390;7.180;2024-03-02T10:17:08;2.25;;;0.77;;
36449;SDS011;22475;51.390;7.180;2024-03-02T10:19:37;1.38;;;0.43;;
36449;SDS011;22475;51.390;7.180;2024-03-02T10:22:05;1.00;;;0.82;;
36449;SDS011;22475;51.390;7.180;2024-03-02T10:24:36;0.38;;;0.38;;
36449;SDS011;22475;51.390;7.180;2024-03-02T10:27:07;2.60;;;0.63;;
36449;SDS011;22475;51.390;7.180;2024-03-02T10:29:38;1.20;;;0.88;;
36449;SDS011;22475;51.390;7.180;2024-03-02T10:32:08;1.05;;;0.45;;
36449;SDS011;22475;51.390;7.180;2024-03-02T10:34:37;2.50;;;0.87;;
36449;SDS011;22475;51.390;7.180;2024-03-02T10:37:06;4.00;;;0.77;;
36449;SDS011;22475;51.390;7.180;2024-03-02T10:39:34;2.15;;;0.80;;
36449;SDS011;22475;51.390;7.180;2024-03-02T10:42:02;1.30;;;0.80;;
36449;SDS011;22475;51.390;7.180;2024-03-02T10:44:30;2.08;;;0.50;;
36449;SDS011;22475;51.390;7.180;2024-03-02T10:46:59;0.77;;;0.63;;
36449;SDS011;22475;51.390;7.180;2024-03-02T10:49:27;0.73;;;0.32;;
36449;SDS011;22475;51.390;7.180;2024-03-02T10:51:57;0.88;;;0.50;;
36449;SDS011;22475;51.390;7.180;2024-03-02T10:54:24;1.05;;;0.57;;
36449;SDS011;22475;51.390;7.180;2024-03-02T10:56:54;0.60;;;0.60;;
36449;SDS011;22475;51.390;7.180;2024-03-02T10:59:26;0.75;;;0.10;;
36449;SDS011;22475;51.390;7.180;2024-03-02T11:01:55;0.30;;;0.30;;
36449;SDS011;22475;51.390;7.180;2024-03-02T11:04:23;3.13;;;0.63;;
36449;SDS011;22475;51.390;7.180;2024-03-02T11:06:51;2.17;;;0.40;;
36449;SDS011;22475;51.390;7.180;2024-03-02T11:09:22;0.40;;;0.40;;
36449;SDS011;22475;51.390;7.180;2024-03-02T11:11:54;0.95;;;0.30;;
36449;SDS011;22475;51.390;7.180;2024-03-02T11:14:26;1.30;;;0.98;;
36449;SDS011;22475;51.390;7.180;2024-03-02T11:16:56;0.00;;;0.00;;
36449;SDS011;22475;51.390;7.180;2024-03-02T11:19:23;0.10;;;0.10;;
36449;SDS011;22475;51.390;7.180;2024-03-02T11:21:50;2.90;;;0.20;;
36449;SDS011;22475;51.390;7.180;2024-03-02T11:27:15;0.40;;;0.40;;
36449;SDS011;22475;51.390;7.180;2024-03-02T11:33:24;0.60;;;0.45;;
36449;SDS011;22475;51.390;7.180;2024-03-02T11:35:52;0.32;;;0.30;;
36449;SDS011;22475;51.390;7.180;2024-03-02T11:38:19;0.35;;;0.32;;
36449;SDS011;22475;51.390;7.180;2024-03-02T11:40:47;5.82;;;0.55;;
36449;SDS011;22475;51.390;7.180;2024-03-02T11:43:14;1.45;;;0.52;;
36449;SDS011;22475;51.390;7.180;2024-03-02T11:45:41;0.93;;;0.35;;
36449;SDS011;22475;51.390;7.180;2024-03-02T11:48:11;0.30;;;0.30;;
36449;SDS011;22475;51.390;7.180;2024-03-02T11:50:40;6.38;;;0.80;;
36449;SDS011;22475;51.390;7.180;2024-03-02T11:53:09;1.73;;;0.77;;
36449;SDS011;22475;51.390;7.180;2024-03-02T11:55:38;1.02;;;0.68;;
36449;SDS011;22475;51.390;7.180;2024-03-02T11:58:07;4.20;;;0.57;;
36449;SDS011;22475;51.390;7.180;2024-03-02T12:00:34;0.65;;;0.32;;
36449;SDS011;22475;51.390;7.180;2024-03-02T12:03:01;1.10;;;0.50;;
36449;SDS011;22475;51.390;7.180;2024-03-02T12:05:30;0.52;;;0.40;;
36449;SDS011;22475;51.390;7.180;2024-03-02T12:07:57;0.55;;;0.40;;
36449;SDS011;22475;51.390;7.180;2024-03-02T12:10:24;0.70;;;0.50;;
36449;SDS011;22475;51.390;7.180;2024-03-02T12:12:57;0.57;;;0.50;;
36449;SDS011;22475;51.390;7.180;2024-03-02T12:15:26;0.68;;;0.30;;
36449;SDS011;22475;51.390;7.180;2024-03-02T12:17:54;1.85;;;0.57;;
36449;SDS011;22475;51.390;7.180;2024-03-02T12:20:21;1.98;;;0.77;;
36449;SDS011;22475;51.390;7.180;2024-03-02T12:22:49;1.83;;;0.35;;
36449;SDS011;22475;51.390;7.180;2024-03-02T12:25:17;0.20;;;0.20;;
36449;SDS011;22475;51.390;7.180;2024-03-02T12:27:44;5.25;;;0.63;;
36449;SDS011;22475;51.390;7.180;2024-03-02T12:30:12;1.10;;;0.30;;
36449;SDS011;22475;51.390;7.180;2024-03-02T12:32:40;0.50;;;0.50;;
36449;SDS011;22475;51.390;7.180;2024-03-02T12:35:07;1.55;;;0.50;;
36449;SDS011;22475;51.390;7.180;2024-03-02T12:37:41;0.30;;;0.30;;
36449;SDS011;22475;51.390;7.180;2024-03-02T12:40:09;1.85;;;0.45;;
36449;SDS011;22475;51.390;7.180;2024-03-02T12:42:37;1.45;;;0.32;;
36449;SDS011;22475;51.390;7.180;2024-03-02T12:45:04;0.82;;;0.30;;
36449;SDS011;22475;51.390;7.180;2024-03-02T12:47:31;0.20;;;0.20;;
36449;SDS011;22475;51.390;7.180;2024-03-02T12:50:00;0.57;;;0.30;;
36449;SDS011;22475;51.390;7.180;2024-03-02T12:52:28;0.10;;;0.10;;
36449;SDS011;22475;51.390;7.180;2024-03-02T12:54:55;0.30;;;0.30;;
36449;SDS011;22475;51.390;7.180;2024-03-02T12:57:24;0.80;;;0.35;;
36449;SDS011;22475;51.390;7.180;2024-03-02T12:59:52;2.72;;;0.17;;
36449;SDS011;22475;51.390;7.180;2024-03-02T13:02:22;0.20;;;0.15;;
36449;SDS011;22475;51.390;7.180;2024-03-02T13:04:52;1.95;;;0.32;;
36449;SDS011;22475;51.390;7.180;2024-03-02T13:07:20;0.17;;;0.10;;
36449;SDS011;22475;51.390;7.180;2024-03-02T13:09:48;0.20;;;0.20;;
36449;SDS011;22475;51.390;7.180;2024-03-02T13:12:15;1.13;;;0.30;;
36449;SDS011;22475;51.390;7.180;2024-03-02T13:14:42;1.92;;;0.25;;
36449;SDS011;22475;51.390;7.180;2024-03-02T13:17:09;0.10;;;0.10;;
36449;SDS011;22475;51.390;7.180;2024-03-02T13:19:39;2.55;;;0.30;;
36449;SDS011;22475;51.390;7.180;2024-03-02T13:22:16;0.10;;;0.10;;
36449;SDS011;22475;51.390;7.180;2024-03-02T13:24:44;0.90;;;0.20;;
36449;SDS011;22475;51.390;7.180;2024-03-02T13:27:11;3.25;;;0.52;;
36449;SDS011;22475;51.390;7.180;2024-03-02T13:29:38;0.15;;;0.15;;
36449;SDS011;22475;51.390;7.180;2024-03-02T13:32:04;0.75;;;0.43;;
36449;SDS011;22475;51.390;7.180;2024-03-02T13:34:31;1.17;;;0.50;;
36449;SDS011;22475;51.390;7.180;2024-03-02T13:36:58;0.85;;;0.70;;
36449;SDS011;22475;51.390;7.180;2024-03-02T13:39:26;1.38;;;0.20;;
36449;SDS011;22475;51.390;7.180;2024-03-02T13:41:57;2.47;;;0.40;;
36449;SDS011;22475;51.390;7.180;2024-03-02T13:44:29;0.60;;;0.13;;
36449;SDS011;22475;51.390;7.180;2024-03-02T13:46:56;0.20;;;0.10;;
36449;SDS011;22475;51.390;7.180;2024-03-02T13:49:23;5.45;;;0.20;;
36449;SDS011;22475;51.390;7.180;2024-03-02T13:51:53;0.20;;;0.20;;
36449;SDS011;22475;51.390;7.180;2024-03-02T13:54:21;0.63;;;0.38;;
36449;SDS011;22475;51.390;7.180;2024-03-02T13:56:48;0.25;;;0.15;;
36449;SDS011;22475;51.390;7.180;2024-03-02T13:59:15;0.10;;;0.10;;
36449;SDS011;22475;51.390;7.180;2024-03-02T14:01:42;2.25;;;0.32;;
36449;SDS011;22475;51.390;7.180;2024-03-02T14:04:09;4.15;;;0.30;;
36449;SDS011;22475;51.390;7.180;2024-03-02T14:06:36;0.85;;;0.22;;
36449;SDS011;22475;51.390;7.180;2024-03-02T14:09:03;3.47;;;0.47;;
36449;SDS011;22475;51.390;7.180;2024-03-02T14:11:29;0.30;;;0.20;;
36449;SDS011;22475;51.390;7.180;2024-03-02T14:13:56;0.30;;;0.30;;
36449;SDS011;22475;51.390;7.180;2024-03-02T14:16:24;0.65;;;0.47;;
36449;SDS011;22475;51.390;7.180;2024-03-02T14:18:51;1.95;;;0.65;;
36449;SDS011;22475;51.390;7.180;2024-03-02T14:21:18;3.25;;;0.40;;
36449;SDS011;22475;51.390;7.180;2024-03-02T14:23:45;0.28;;;0.20;;
36449;SDS011;22475;51.390;7.180;2024-03-02T14:26:12;0.60;;;0.60;;
36449;SDS011;22475;51.390;7.180;2024-03-02T14:28:38;0.75;;;0.20;;
36449;SDS011;22475;51.390;7.180;2024-03-02T14:31:05;0.30;;;0.30;;
36449;SDS011;22475;51.390;7.180;2024-03-02T14:33:33;0.22;;;0.13;;
36449;SDS011;22475;51.390;7.180;2024-03-02T14:36:00;0.38;;;0.30;;
36449;SDS011;22475;51.390;7.180;2024-03-02T14:38:29;0.60;;;0.20;;
36449;SDS011;22475;51.390;7.180;2024-03-02T14:40:56;0.50;;;0.30;;
36449;SDS011;22475;51.390;7.180;2024-03-02T14:43:23;0.85;;;0.80;;
36449;SDS011;22475;51.390;7.180;2024-03-02T14:45:50;0.20;;;0.20;;
36449;SDS011;22475;51.390;7.180;2024-03-02T14:48:17;0.20;;;0.20;;
36449;SDS011;22475;51.390;7.180;2024-03-02T14:50:45;0.85;;;0.50;;
36449;SDS011;22475;51.390;7.180;2024-03-02T14:53:12;0.45;;;0.30;;
36449;SDS011;22475;51.390;7.180;2024-03-02T14:55:38;0.20;;;0.20;;
36449;SDS011;22475;51.390;7.180;2024-03-02T14:58:05;0.60;;;0.30;;
36449;SDS011;22475;51.390;7.180;2024-03-02T15:00:33;1.85;;;0.60;;
36449;SDS011;22475;51.390;7.180;2024-03-02T15:03:00;0.90;;;0.32;;